sensor_id;sensor_type;location;lat;lon;timestamp;pressure;altitude;pressure_sealevel;temperature;humidity
64711;BME280;51139;45.626;6.850;2022-09-03T00:00:18;82219.41;;;10.23;79.24
64711;BME280;51139;45.626;6.850;2022-09-03T00:05:40;82203.09;;;9.91;81.59
64711;BME280;51139;45.626;6.850;2022-09-03T00:08:18;82191.56;;;9.61;81.40
64711;BME280;51139;45.626;6.850;2022-09-03T00:11:04;82189.09;;;9.81;80.21
64711;BME280;51139;45.626;6.850;2022-09-03T00:13:41;82186.19;;;9.69;80.14
64711;BME280;51139;45.626;6.850;2022-09-03T00:16:10;82187.34;;;9.58;80.86
64711;BME280;51139;45.626;6.850;2022-09-03T00:19:00;82178.66;;;9.66;80.08
64711;BME280;51139;45.626;6.850;2022-09-03T00:21:54;82175.72;;;9.79;76.60
64711;BME280;51139;45.626;6.850;2022-09-03T00:24:25;82174.59;;;9.22;80.10
64711;BME280;51139;45.626;6.850;2022-09-03T00:26:54;82170.69;;;8.97;80.50
64711;BME280;51139;45.626;6.850;2022-09-03T00:29:28;82183.81;;;8.80;82.84
64711;BME280;51139;45.626;6.850;2022-09-03T00:32:06;82168.69;;;9.05;81.52
64711;BME280;51139;45.626;6.850;2022-09-03T00:34:36;82152.47;;;9.09;80.34
64711;BME280;51139;45.626;6.850;2022-09-03T00:37:06;82151.88;;;8.93;82.86
64711;BME280;51139;45.626;6.850;2022-09-03T00:39:32;82144.81;;;8.96;81.78
64711;BME280;51139;45.626;6.850;2022-09-03T00:42:04;82144.22;;;8.80;81.82
64711;BME280;51139;45.626;6.850;2022-09-03T00:55:21;82133.53;;;9.81;78.43
64711;BME280;51139;45.626;6.850;2022-09-03T01:00:21;82137.19;;;9.25;83.49
64711;BME280;51139;45.626;6.850;2022-09-03T01:16:50;82132.03;;;9.70;74.33
64711;BME280;51139;45.626;6.850;2022-09-03T01:30:23;82127.63;;;9.73;73.79
64711;BME280;51139;45.626;6.850;2022-09-03T01:48:40;82129.88;;;9.59;74.37
64711;BME280;51139;45.626;6.850;2022-09-03T01:51:28;82132.91;;;9.55;71.90
64711;BME280;51139;45.626;6.850;2022-09-03T01:59:31;82119.09;;;8.96;76.12
64711;BME280;51139;45.626;6.850;2022-09-03T02:02:21;82123.00;;;9.56;72.36
64711;BME280;51139;45.626;6.850;2022-09-03T02:05:04;82124.06;;;9.78;72.06
64711;BME280;51139;45.626;6.850;2022-09-03T02:08:07;82112.22;;;9.61;71.40
64711;BME280;51139;45.626;6.850;2022-09-03T02:13:16;82103.75;;;9.98;76.55
64711;BME280;51139;45.626;6.850;2022-09-03T02:15:45;82115.25;;;9.93;76.27
64711;BME280;51139;45.626;6.850;2022-09-03T02:18:18;82122.25;;;10.16;76.62
64711;BME280;51139;45.626;6.850;2022-09-03T02:20:45;82118.22;;;9.97;77.24
64711;BME280;51139;45.626;6.850;2022-09-03T02:23:12;82116.16;;;10.23;75.94
64711;BME280;51139;45.626;6.850;2022-09-03T02:25:42;82109.56;;;10.32;72.70
64711;BME280;51139;45.626;6.850;2022-09-03T02:28:09;82106.75;;;10.30;72.44
64711;BME280;51139;45.626;6.850;2022-09-03T02:30:35;82110.50;;;10.09;73.89
64711;BME280;51139;45.626;6.850;2022-09-03T02:33:00;82104.84;;;10.58;72.12
64711;BME280;51139;45.626;6.850;2022-09-03T02:35:26;82103.09;;;10.70;70.23
64711;BME280;51139;45.626;6.850;2022-09-03T02:37:52;82104.47;;;10.99;65.87
64711;BME280;51139;45.626;6.850;2022-09-03T02:40:18;82111.88;;;10.45;69.09
64711;BME280;51139;45.626;6.850;2022-09-03T02:42:45;82106.09;;;10.57;71.92
64711;BME280;51139;45.626;6.850;2022-09-03T02:45:27;82101.94;;;10.01;74.86
64711;BME280;51139;45.626;6.850;2022-09-03T02:47:55;82100.06;;;10.29;70.69
64711;BME280;51139;45.626;6.850;2022-09-03T02:50:22;82099.97;;;10.19;72.39
64711;BME280;51139;45.626;6.850;2022-09-03T02:52:47;82098.34;;;10.24;74.71
64711;BME280;51139;45.626;6.850;2022-09-03T02:55:13;82102.25;;;10.40;75.56
64711;BME280;51139;45.626;6.850;2022-09-03T02:57:39;82093.75;;;10.24;76.94
64711;BME280;51139;45.626;6.850;2022-09-03T03:00:05;82100.50;;;10.35;75.48
64711;BME280;51139;45.626;6.850;2022-09-03T03:02:31;82099.75;;;10.70;72.13
64711;BME280;51139;45.626;6.850;2022-09-03T03:04:57;82105.31;;;11.01;70.27
64711;BME280;51139;45.626;6.850;2022-09-03T03:07:22;82088.94;;;10.85;69.80
64711;BME280;51139;45.626;6.850;2022-09-03T03:09:48;82099.16;;;10.16;71.88
64711;BME280;51139;45.626;6.850;2022-09-03T03:12:13;82106.53;;;10.63;71.62
64711;BME280;51139;45.626;6.850;2022-09-03T03:14:41;82106.94;;;10.87;71.92
64711;BME280;51139;45.626;6.850;2022-09-03T03:17:06;82104.59;;;11.28;69.37
64711;BME280;51139;45.626;6.850;2022-09-03T03:19:32;82112.63;;;11.11;70.16
64711;BME280;51139;45.626;6.850;2022-09-03T03:21:57;82105.41;;;11.21;70.12
64711;BME280;51139;45.626;6.850;2022-09-03T03:24:23;82103.69;;;10.51;70.62
64711;BME280;51139;45.626;6.850;2022-09-03T03:26:48;82090.16;;;10.29;72.12
64711;BME280;51139;45.626;6.850;2022-09-03T03:29:15;82077.00;;;9.76;75.21
64711;BME280;51139;45.626;6.850;2022-09-03T03:31:44;82067.09;;;9.77;72.71
64711;BME280;51139;45.626;6.850;2022-09-03T03:34:10;82076.34;;;10.03;72.97
64711;BME280;51139;45.626;6.850;2022-09-03T03:36:35;82069.78;;;10.22;73.86
64711;BME280;51139;45.626;6.850;2022-09-03T03:39:01;82073.88;;;10.50;71.34
64711;BME280;51139;45.626;6.850;2022-09-03T03:41:35;82070.50;;;10.77;74.56
64711;BME280;51139;45.626;6.850;2022-09-03T03:44:03;82074.19;;;10.37;75.20
64711;BME280;51139;45.626;6.850;2022-09-03T03:46:34;82071.28;;;10.60;74.50
64711;BME280;51139;45.626;6.850;2022-09-03T03:48:59;82071.38;;;10.90;71.31
64711;BME280;51139;45.626;6.850;2022-09-03T03:51:25;82068.91;;;10.37;75.05
64711;BME280;51139;45.626;6.850;2022-09-03T03:53:53;82066.56;;;10.41;74.88
64711;BME280;51139;45.626;6.850;2022-09-03T03:56:20;82060.13;;;10.62;73.51
64711;BME280;51139;45.626;6.850;2022-09-03T03:58:45;82060.22;;;10.54;74.97
64711;BME280;51139;45.626;6.850;2022-09-03T04:01:14;82065.81;;;10.58;75.84
64711;BME280;51139;45.626;6.850;2022-09-03T04:03:41;82063.97;;;10.51;76.42
64711;BME280;51139;45.626;6.850;2022-09-03T04:06:07;82063.13;;;10.76;74.37
64711;BME280;51139;45.626;6.850;2022-09-03T04:08:38;82064.09;;;10.80;74.65
64711;BME280;51139;45.626;6.850;2022-09-03T04:11:06;82060.91;;;10.55;72.60
64711;BME280;51139;45.626;6.850;2022-09-03T04:13:34;82055.50;;;10.35;72.92
64711;BME280;51139;45.626;6.850;2022-09-03T04:16:05;82061.56;;;10.73;70.75
64711;BME280;51139;45.626;6.850;2022-09-03T04:18:32;82062.59;;;10.87;67.34
64711;BME280;51139;45.626;6.850;2022-09-03T04:21:00;82064.34;;;11.12;70.93
64711;BME280;51139;45.626;6.850;2022-09-03T04:23:37;82059.88;;;11.05;74.07
64711;BME280;51139;45.626;6.850;2022-09-03T04:26:04;82050.19;;;10.90;73.42
64711;BME280;51139;45.626;6.850;2022-09-03T04:28:31;82052.63;;;10.68;73.01
64711;BME280;51139;45.626;6.850;2022-09-03T04:31:05;82053.13;;;10.57;75.56
64711;BME280;51139;45.626;6.850;2022-09-03T04:33:32;82053.94;;;10.87;72.47
64711;BME280;51139;45.626;6.850;2022-09-03T04:36:08;82061.91;;;11.44;70.04
64711;BME280;51139;45.626;6.850;2022-09-03T04:38:36;82055.94;;;11.73;67.35
64711;BME280;51139;45.626;6.850;2022-09-03T04:41:03;82049.41;;;11.07;72.56
64711;BME280;51139;45.626;6.850;2022-09-03T04:43:29;82052.84;;;10.90;66.79
64711;BME280;51139;45.626;6.850;2022-09-03T04:45:58;82044.06;;;10.97;68.43
64711;BME280;51139;45.626;6.850;2022-09-03T04:48:25;82056.44;;;11.22;67.56
64711;BME280;51139;45.626;6.850;2022-09-03T04:50:50;82060.03;;;10.70;67.91
64711;BME280;51139;45.626;6.850;2022-09-03T04:53:15;82042.31;;;10.72;68.76
64711;BME280;51139;45.626;6.850;2022-09-03T04:55:41;82039.44;;;10.05;71.90
64711;BME280;51139;45.626;6.850;2022-09-03T04:58:06;82041.88;;;9.93;74.62
64711;BME280;51139;45.626;6.850;2022-09-03T05:00:32;82050.63;;;9.69;76.33
64711;BME280;51139;45.626;6.850;2022-09-03T05:03:00;82052.78;;;9.80;75.29
64711;BME280;51139;45.626;6.850;2022-09-03T05:05:25;82045.63;;;9.73;73.71
64711;BME280;51139;45.626;6.850;2022-09-03T05:07:51;82042.38;;;9.64;74.28
64711;BME280;51139;45.626;6.850;2022-09-03T05:10:17;82040.47;;;9.92;71.35
64711;BME280;51139;45.626;6.850;2022-09-03T05:12:47;82037.59;;;9.98;72.15
64711;BME280;51139;45.626;6.850;2022-09-03T05:15:14;82038.31;;;9.63;74.54
64711;BME280;51139;45.626;6.850;2022-09-03T05:17:39;82040.50;;;9.57;75.93
64711;BME280;51139;45.626;6.850;2022-09-03T05:20:06;82041.06;;;9.73;75.66
64711;BME280;51139;45.626;6.850;2022-09-03T05:22:34;82040.00;;;9.86;75.55
64711;BME280;51139;45.626;6.850;2022-09-03T05:24:59;82045.81;;;10.20;74.49
64711;BME280;51139;45.626;6.850;2022-09-03T05:27:25;82036.31;;;10.17;74.55
64711;BME280;51139;45.626;6.850;2022-09-03T05:29:50;82045.53;;;10.43;74.09
64711;BME280;51139;45.626;6.850;2022-09-03T05:32:16;82037.81;;;10.65;72.08
64711;BME280;51139;45.626;6.850;2022-09-03T05:34:42;82037.59;;;10.71;69.14
64711;BME280;51139;45.626;6.850;2022-09-03T05:37:08;82029.59;;;10.61;69.56
64711;BME280;51139;45.626;6.850;2022-09-03T05:39:33;82032.69;;;10.67;70.80
64711;BME280;51139;45.626;6.850;2022-09-03T05:41:59;82034.53;;;10.47;72.62
64711;BME280;51139;45.626;6.850;2022-09-03T05:44:24;82037.09;;;10.55;73.68
64711;BME280;51139;45.626;6.850;2022-09-03T05:46:49;82039.31;;;10.58;72.64
64711;BME280;51139;45.626;6.850;2022-09-03T05:49:16;82036.56;;;10.66;72.57
64711;BME280;51139;45.626;6.850;2022-09-03T05:51:42;82034.34;;;10.62;73.06
64711;BME280;51139;45.626;6.850;2022-09-03T05:54:09;82027.00;;;10.71;71.77
64711;BME280;51139;45.626;6.850;2022-09-03T05:56:36;82023.97;;;10.84;69.65
64711;BME280;51139;45.626;6.850;2022-09-03T05:59:04;82030.97;;;10.99;67.88
64711;BME280;51139;45.626;6.850;2022-09-03T06:01:33;82024.84;;;10.97;71.54
64711;BME280;51139;45.626;6.850;2022-09-03T06:04:06;82023.38;;;10.76;72.38
64711;BME280;51139;45.626;6.850;2022-09-03T06:06:35;82025.22;;;10.93;68.26
64711;BME280;51139;45.626;6.850;2022-09-03T06:09:10;82030.47;;;11.11;69.36
64711;BME280;51139;45.626;6.850;2022-09-03T06:11:37;82035.88;;;10.65;69.71
64711;BME280;51139;45.626;6.850;2022-09-03T06:14:05;82032.94;;;10.61;71.88
64711;BME280;51139;45.626;6.850;2022-09-03T06:16:33;82031.09;;;10.54;73.38
64711;BME280;51139;45.626;6.850;2022-09-03T06:19:00;82031.94;;;10.57;72.16
64711;BME280;51139;45.626;6.850;2022-09-03T06:21:26;82038.47;;;10.93;68.51
64711;BME280;51139;45.626;6.850;2022-09-03T06:23:54;82035.75;;;11.11;66.55
64711;BME280;51139;45.626;6.850;2022-09-03T06:26:21;82040.03;;;10.96;70.49
64711;BME280;51139;45.626;6.850;2022-09-03T06:28:47;82035.53;;;10.79;74.61
64711;BME280;51139;45.626;6.850;2022-09-03T06:31:16;82037.38;;;10.96;72.08
64711;BME280;51139;45.626;6.850;2022-09-03T06:33:42;82032.66;;;11.04;71.05
64711;BME280;51139;45.626;6.850;2022-09-03T06:36:10;82038.63;;;11.52;71.89
64711;BME280;51139;45.626;6.850;2022-09-03T06:38:38;82030.56;;;12.09;69.30
64711;BME280;51139;45.626;6.850;2022-09-03T06:41:09;82029.16;;;12.28;64.74
64711;BME280;51139;45.626;6.850;2022-09-03T06:43:37;82028.66;;;12.61;62.89
64711;BME280;51139;45.626;6.850;2022-09-03T06:46:08;82030.03;;;12.81;58.31
64711;BME280;51139;45.626;6.850;2022-09-03T06:48:35;82027.44;;;12.42;64.52
64711;BME280;51139;45.626;6.850;2022-09-03T06:53:36;82020.34;;;12.45;68.62
64711;BME280;51139;45.626;6.850;2022-09-03T06:56:04;82022.22;;;13.68;61.55
64711;BME280;51139;45.626;6.850;2022-09-03T06:58:41;82026.13;;;14.33;59.42
64711;BME280;51139;45.626;6.850;2022-09-03T07:01:10;82020.41;;;14.26;54.43
64711;BME280;51139;45.626;6.850;2022-09-03T07:03:38;82020.13;;;14.10;55.24
64711;BME280;51139;45.626;6.850;2022-09-03T07:06:05;82023.00;;;13.27;55.38
64711;BME280;51139;45.626;6.850;2022-09-03T07:08:32;82029.50;;;13.36;59.67
64711;BME280;51139;45.626;6.850;2022-09-03T07:11:02;82029.84;;;13.84;55.07
64711;BME280;51139;45.626;6.850;2022-09-03T07:16:27;82021.34;;;13.76;54.24
64711;BME280;51139;45.626;6.850;2022-09-03T07:18:53;82021.88;;;13.84;55.71
64711;BME280;51139;45.626;6.850;2022-09-03T07:21:21;82023.03;;;13.18;57.72
64711;BME280;51139;45.626;6.850;2022-09-03T07:23:48;82021.41;;;13.34;60.38
64711;BME280;51139;45.626;6.850;2022-09-03T07:26:22;82019.75;;;13.61;65.03
64711;BME280;51139;45.626;6.850;2022-09-03T07:28:48;82018.59;;;13.10;69.99
64711;BME280;51139;45.626;6.850;2022-09-03T07:31:19;82018.66;;;13.22;64.69
64711;BME280;51139;45.626;6.850;2022-09-03T07:33:46;82021.38;;;12.71;61.54
64711;BME280;51139;45.626;6.850;2022-09-03T07:36:16;82035.56;;;12.44;64.81
64711;BME280;51139;45.626;6.850;2022-09-03T07:38:43;82034.94;;;13.17;75.56
64711;BME280;51139;45.626;6.850;2022-09-03T07:41:13;82030.19;;;13.47;73.12
64711;BME280;51139;45.626;6.850;2022-09-03T07:43:43;82038.66;;;14.42;67.75
64711;BME280;51139;45.626;6.850;2022-09-03T07:46:14;82031.56;;;14.35;60.99
64711;BME280;51139;45.626;6.850;2022-09-03T07:48:45;82035.34;;;14.20;67.97
64711;BME280;51139;45.626;6.850;2022-09-03T07:51:11;82034.66;;;14.86;68.88
64711;BME280;51139;45.626;6.850;2022-09-03T07:53:36;82035.03;;;15.76;61.66
64711;BME280;51139;45.626;6.850;2022-09-03T07:56:07;82039.00;;;15.75;62.83
64711;BME280;51139;45.626;6.850;2022-09-03T07:58:35;82038.41;;;15.65;59.57
64711;BME280;51139;45.626;6.850;2022-09-03T08:01:06;82037.22;;;16.15;60.82
64711;BME280;51139;45.626;6.850;2022-09-03T08:03:36;82032.34;;;16.61;59.02
64711;BME280;51139;45.626;6.850;2022-09-03T08:06:04;82038.44;;;16.76;60.14
64711;BME280;51139;45.626;6.850;2022-09-03T08:08:32;82034.22;;;15.85;63.54
64711;BME280;51139;45.626;6.850;2022-09-03T08:11:14;82039.94;;;15.56;65.49
64711;BME280;51139;45.626;6.850;2022-09-03T08:13:42;82049.13;;;16.50;61.30
64711;BME280;51139;45.626;6.850;2022-09-03T08:16:10;82048.28;;;17.11;59.55
64711;BME280;51139;45.626;6.850;2022-09-03T08:18:37;82058.13;;;16.69;60.22
64711;BME280;51139;45.626;6.850;2022-09-03T08:21:08;82045.63;;;17.51;57.46
64711;BME280;51139;45.626;6.850;2022-09-03T08:23:38;82051.63;;;16.98;61.78
64711;BME280;51139;45.626;6.850;2022-09-03T08:26:04;82050.03;;;16.05;59.50
64711;BME280;51139;45.626;6.850;2022-09-03T08:28:30;82052.81;;;16.57;57.87
64711;BME280;51139;45.626;6.850;2022-09-03T08:31:03;82064.63;;;17.29;58.74
64711;BME280;51139;45.626;6.850;2022-09-03T08:33:29;82071.91;;;16.77;59.04
64711;BME280;51139;45.626;6.850;2022-09-03T08:36:05;82067.09;;;16.99;60.65
64711;BME280;51139;45.626;6.850;2022-09-03T08:38:32;82079.13;;;17.12;58.31
64711;BME280;51139;45.626;6.850;2022-09-03T08:41:27;82075.56;;;16.70;62.33
64711;BME280;51139;45.626;6.850;2022-09-03T08:46:40;82070.13;;;16.56;66.85
64711;BME280;51139;45.626;6.850;2022-09-03T08:49:10;82077.63;;;16.71;58.94
64711;BME280;51139;45.626;6.850;2022-09-03T08:51:39;82088.22;;;16.08;68.26
64711;BME280;51139;45.626;6.850;2022-09-03T08:54:06;82084.53;;;15.89;70.99
64711;BME280;51139;45.626;6.850;2022-09-03T08:56:38;82084.38;;;15.27;72.47
64711;BME280;51139;45.626;6.850;2022-09-03T08:59:04;82079.69;;;15.04;73.27
64711;BME280;51139;45.626;6.850;2022-09-03T09:05:15;82096.69;;;15.68;72.58
64711;BME280;51139;45.626;6.850;2022-09-03T09:10:11;82099.03;;;15.86;75.39
64711;BME280;51139;45.626;6.850;2022-09-03T09:21:26;82093.63;;;16.45;67.78
64711;BME280;51139;45.626;6.850;2022-09-03T09:23:56;82105.72;;;16.84;60.41
64711;BME280;51139;45.626;6.850;2022-09-03T09:26:24;82104.59;;;16.75;60.49
64711;BME280;51139;45.626;6.850;2022-09-03T09:28:58;82099.06;;;16.59;58.10
64711;BME280;51139;45.626;6.850;2022-09-03T09:31:26;82092.91;;;16.57;58.73
64711;BME280;51139;45.626;6.850;2022-09-03T09:33:52;82099.06;;;16.59;57.56
64711;BME280;51139;45.626;6.850;2022-09-03T09:36:18;82104.34;;;16.83;62.47
64711;BME280;51139;45.626;6.850;2022-09-03T09:38:45;82097.28;;;17.14;59.71
64711;BME280;51139;45.626;6.850;2022-09-03T09:41:16;82094.72;;;16.78;63.35
64711;BME280;51139;45.626;6.850;2022-09-03T09:43:47;82090.34;;;16.97;68.88
64711;BME280;51139;45.626;6.850;2022-09-03T09:46:18;82099.03;;;17.09;61.82
64711;BME280;51139;45.626;6.850;2022-09-03T09:48:48;82084.00;;;17.16;63.26
64711;BME280;51139;45.626;6.850;2022-09-03T09:51:24;82093.78;;;17.11;59.39
64711;BME280;51139;45.626;6.850;2022-09-03T09:54:13;82088.38;;;16.97;62.49
64711;BME280;51139;45.626;6.850;2022-09-03T09:56:41;82093.47;;;17.31;58.82
64711;BME280;51139;45.626;6.850;2022-09-03T09:59:10;82092.06;;;17.04;59.92
64711;BME280;51139;45.626;6.850;2022-09-03T10:01:38;82092.91;;;16.95;61.40
64711;BME280;51139;45.626;6.850;2022-09-03T10:06:35;82090.94;;;17.47;61.90
64711;BME280;51139;45.626;6.850;2022-09-03T10:09:21;82093.81;;;17.51;59.40
64711;BME280;51139;45.626;6.850;2022-09-03T10:14:28;82096.03;;;17.55;64.60
64711;BME280;51139;45.626;6.850;2022-09-03T10:17:17;82103.13;;;16.60;64.74
64711;BME280;51139;45.626;6.850;2022-09-03T10:20:27;82113.75;;;16.84;65.52
64711;BME280;51139;45.626;6.850;2022-09-03T10:28:37;82119.97;;;17.78;57.29
64711;BME280;51139;45.626;6.850;2022-09-03T10:55:16;82138.25;;;17.82;52.00
64711;BME280;51139;45.626;6.850;2022-09-03T11:00:55;82152.56;;;17.35;53.67
64711;BME280;51139;45.626;6.850;2022-09-03T11:03:38;82146.69;;;17.50;55.30
64711;BME280;51139;45.626;6.850;2022-09-03T11:06:11;82147.06;;;17.71;52.84
64711;BME280;51139;45.626;6.850;2022-09-03T11:09:06;82145.72;;;17.32;53.76
64711;BME280;51139;45.626;6.850;2022-09-03T11:11:50;82149.00;;;17.18;57.12
64711;BME280;51139;45.626;6.850;2022-09-03T11:14:29;82145.72;;;17.32;55.32
64711;BME280;51139;45.626;6.850;2022-09-03T11:17:04;82143.47;;;17.40;56.43
64711;BME280;51139;45.626;6.850;2022-09-03T11:19:40;82137.53;;;17.68;54.36
64711;BME280;51139;45.626;6.850;2022-09-03T11:22:10;82144.25;;;18.08;55.53
64711;BME280;51139;45.626;6.850;2022-09-03T11:24:38;82146.56;;;17.74;55.01
64711;BME280;51139;45.626;6.850;2022-09-03T11:27:23;82131.47;;;17.41;56.54
64711;BME280;51139;45.626;6.850;2022-09-03T11:30:06;82138.09;;;17.66;54.43
64711;BME280;51139;45.626;6.850;2022-09-03T11:35:22;82130.38;;;17.20;56.52
64711;BME280;51139;45.626;6.850;2022-09-03T11:38:01;82134.94;;;17.44;55.78
64711;BME280;51139;45.626;6.850;2022-09-03T11:40:36;82135.66;;;17.84;54.00
64711;BME280;51139;45.626;6.850;2022-09-03T11:43:24;82129.97;;;17.38;55.28
64711;BME280;51139;45.626;6.850;2022-09-03T11:48:53;82129.41;;;17.02;53.87
64711;BME280;51139;45.626;6.850;2022-09-03T11:54:23;82131.47;;;17.15;54.38
64711;BME280;51139;45.626;6.850;2022-09-03T11:56:50;82141.34;;;17.25;54.02
64711;BME280;51139;45.626;6.850;2022-09-03T11:59:21;82138.47;;;17.34;54.62
64711;BME280;51139;45.626;6.850;2022-09-03T12:04:26;82131.78;;;17.21;52.22
64711;BME280;51139;45.626;6.850;2022-09-03T12:07:07;82130.84;;;16.91;54.89
64711;BME280;51139;45.626;6.850;2022-09-03T12:18:21;82122.19;;;17.56;48.54
64711;BME280;51139;45.626;6.850;2022-09-03T12:21:09;82132.22;;;17.96;49.21
64711;BME280;51139;45.626;6.850;2022-09-03T12:23:39;82127.38;;;17.66;49.64
64711;BME280;51139;45.626;6.850;2022-09-03T12:26:17;82127.31;;;17.38;49.55
64711;BME280;51139;45.626;6.850;2022-09-03T12:28:49;82127.88;;;18.02;49.78
64711;BME280;51139;45.626;6.850;2022-09-03T12:31:27;82129.78;;;17.74;52.13
64711;BME280;51139;45.626;6.850;2022-09-03T12:33:59;82131.03;;;17.99;52.34
64711;BME280;51139;45.626;6.850;2022-09-03T12:36:35;82121.50;;;17.56;50.67
64711;BME280;51139;45.626;6.850;2022-09-03T12:39:17;82135.25;;;17.50;49.74
64711;BME280;51139;45.626;6.850;2022-09-03T12:49:34;82123.34;;;17.79;51.35
64711;BME280;51139;45.626;6.850;2022-09-03T12:52:07;82117.13;;;17.48;49.51
64711;BME280;51139;45.626;6.850;2022-09-03T12:54:42;82127.31;;;17.78;53.34
64711;BME280;51139;45.626;6.850;2022-09-03T12:57:12;82123.44;;;18.07;47.42
64711;BME280;51139;45.626;6.850;2022-09-03T12:59:40;82125.09;;;18.00;46.65
64711;BME280;51139;45.626;6.850;2022-09-03T13:02:23;82117.03;;;17.60;52.91
64711;BME280;51139;45.626;6.850;2022-09-03T13:04:50;82118.50;;;17.49;55.26
64711;BME280;51139;45.626;6.850;2022-09-03T13:07:27;82124.97;;;17.98;49.82
64711;BME280;51139;45.626;6.850;2022-09-03T13:10:00;82118.97;;;17.72;48.95
64711;BME280;51139;45.626;6.850;2022-09-03T13:12:32;82123.63;;;18.39;47.06
64711;BME280;51139;45.626;6.850;2022-09-03T13:15:04;82124.94;;;18.38;44.09
64711;BME280;51139;45.626;6.850;2022-09-03T13:20:28;82117.47;;;18.50;44.57
64711;BME280;51139;45.626;6.850;2022-09-03T13:33:53;82108.88;;;17.44;47.49
64711;BME280;51139;45.626;6.850;2022-09-03T13:36:25;82106.09;;;17.96;52.28
64711;BME280;51139;45.626;6.850;2022-09-03T13:38:59;82112.13;;;18.36;49.65
64711;BME280;51139;45.626;6.850;2022-09-03T13:41:41;82109.56;;;18.38;46.16
64711;BME280;51139;45.626;6.850;2022-09-03T13:44:41;82098.13;;;17.70;48.60
64711;BME280;51139;45.626;6.850;2022-09-03T13:50:15;82111.97;;;17.53;50.28
64711;BME280;51139;45.626;6.850;2022-09-03T13:55:51;82102.78;;;18.09;51.17
64711;BME280;51139;45.626;6.850;2022-09-03T13:58:30;82099.38;;;17.55;49.81
64711;BME280;51139;45.626;6.850;2022-09-03T14:03:30;82105.59;;;17.86;49.30
64711;BME280;51139;45.626;6.850;2022-09-03T14:12:12;82092.06;;;18.09;48.62
64711;BME280;51139;45.626;6.850;2022-09-03T14:20:22;82092.72;;;17.42;50.26
64711;BME280;51139;45.626;6.850;2022-09-03T14:23:09;82101.00;;;17.74;53.83
64711;BME280;51139;45.626;6.850;2022-09-03T14:26:01;82095.66;;;17.74;50.04
64711;BME280;51139;45.626;6.850;2022-09-03T14:28:30;82083.72;;;17.63;49.47
64711;BME280;51139;45.626;6.850;2022-09-03T14:31:20;82089.44;;;17.98;53.01
64711;BME280;51139;45.626;6.850;2022-09-03T14:34:05;82085.88;;;17.39;49.31
64711;BME280;51139;45.626;6.850;2022-09-03T14:39:33;82080.25;;;17.61;51.02
64711;BME280;51139;45.626;6.850;2022-09-03T14:50:12;82092.94;;;17.46;51.91
64711;BME280;51139;45.626;6.850;2022-09-03T14:55:37;82081.13;;;17.52;53.65
64711;BME280;51139;45.626;6.850;2022-09-03T14:58:13;82094.00;;;17.95;50.35
64711;BME280;51139;45.626;6.850;2022-09-03T15:00:50;82100.22;;;17.72;51.98
64711;BME280;51139;45.626;6.850;2022-09-03T15:06:15;82100.22;;;18.12;51.41
64711;BME280;51139;45.626;6.850;2022-09-03T15:11:34;82102.81;;;17.44;51.41
64711;BME280;51139;45.626;6.850;2022-09-03T15:14:23;82104.69;;;17.67;51.33
64711;BME280;51139;45.626;6.850;2022-09-03T15:37:19;82100.06;;;17.16;48.80
64711;BME280;51139;45.626;6.850;2022-09-03T15:39:58;82111.34;;;16.27;51.07
64711;BME280;51139;45.626;6.850;2022-09-03T15:42:25;82113.63;;;16.44;49.74
64711;BME280;51139;45.626;6.850;2022-09-03T15:44:54;82114.09;;;16.90;49.24
64711;BME280;51139;45.626;6.850;2022-09-03T15:47:47;82113.72;;;16.58;50.27
64711;BME280;51139;45.626;6.850;2022-09-03T15:50:33;82118.13;;;16.54;49.34
64711;BME280;51139;45.626;6.850;2022-09-03T15:53:23;82111.50;;;16.92;50.40
64711;BME280;51139;45.626;6.850;2022-09-03T15:56:13;82110.03;;;16.40;49.75
64711;BME280;51139;45.626;6.850;2022-09-03T15:58:49;82111.22;;;16.74;49.02
64711;BME280;51139;45.626;6.850;2022-09-03T16:01:31;82110.75;;;16.78;49.70
64711;BME280;51139;45.626;6.850;2022-09-03T16:06:55;82101.56;;;16.81;49.57
64711;BME280;51139;45.626;6.850;2022-09-03T16:14:56;82098.03;;;16.90;47.73
64711;BME280;51139;45.626;6.850;2022-09-03T16:17:31;82104.69;;;17.15;48.62
64711;BME280;51139;45.626;6.850;2022-09-03T16:20:05;82102.47;;;16.86;47.46
64711;BME280;51139;45.626;6.850;2022-09-03T16:22:39;82096.66;;;16.77;49.17
64711;BME280;51139;45.626;6.850;2022-09-03T16:25:09;82102.81;;;16.92;48.79
64711;BME280;51139;45.626;6.850;2022-09-03T16:27:44;82109.88;;;16.61;49.45
64711;BME280;51139;45.626;6.850;2022-09-03T16:30:28;82103.50;;;16.92;49.08
64711;BME280;51139;45.626;6.850;2022-09-03T16:33:27;82109.56;;;16.93;48.83
64711;BME280;51139;45.626;6.850;2022-09-03T17:02:03;82102.22;;;17.19;46.54
64711;BME280;51139;45.626;6.850;2022-09-03T17:10:16;82102.00;;;16.89;47.75
64711;BME280;51139;45.626;6.850;2022-09-03T17:15:55;82095.47;;;16.55;47.53
64711;BME280;51139;45.626;6.850;2022-09-03T17:21:38;82107.13;;;17.23;47.52
64711;BME280;51139;45.626;6.850;2022-09-03T17:27:16;82101.91;;;17.13;47.26
64711;BME280;51139;45.626;6.850;2022-09-03T17:29:58;82103.47;;;16.67;46.43
64711;BME280;51139;45.626;6.850;2022-09-03T17:33:03;82102.59;;;16.38;47.48
64711;BME280;51139;45.626;6.850;2022-09-03T17:36:06;82105.84;;;16.86;47.76
64711;BME280;51139;45.626;6.850;2022-09-03T17:38:56;82108.22;;;17.06;46.61
64711;BME280;51139;45.626;6.850;2022-09-03T17:49:46;82123.28;;;16.87;47.40
64711;BME280;51139;45.626;6.850;2022-09-03T17:55:01;82139.25;;;16.73;47.27
64711;BME280;51139;45.626;6.850;2022-09-03T17:57:47;82142.41;;;16.70;47.52
64711;BME280;51139;45.626;6.850;2022-09-03T18:00:52;82146.63;;;16.49;48.57
64711;BME280;51139;45.626;6.850;2022-09-03T18:03:28;82143.97;;;16.37;48.50
64711;BME280;51139;45.626;6.850;2022-09-03T18:06:21;82151.75;;;16.33;48.74
64711;BME280;51139;45.626;6.850;2022-09-03T18:09:06;82152.47;;;16.22;49.11
64711;BME280;51139;45.626;6.850;2022-09-03T18:11:40;82161.13;;;16.58;48.29
64711;BME280;51139;45.626;6.850;2022-09-03T18:14:21;82159.78;;;15.97;48.33
64711;BME280;51139;45.626;6.850;2022-09-03T18:16:54;82160.00;;;16.25;47.99